Time;durP1;ratioP1;P1;durP2;ratioP2;P2;SDS_P1;SDS_P2;PMS_P1;PMS_P2;Temp;Humidity;BMP_temperature;BMP_pressure;BME280_temperature;BME280_humidity;BME280_pressure;Samples;Min_cycle;Max_cycle;Signal;HPM_P1;HPM_P2
2023/05/25 00:00:26;;;;;;;13.82;4.93;;;;;;;;;;5055274;28;21902;-74
2023/05/25 00:02:53;;;;;;;14.40;5.28;;;;;;;;;;5057873;28;20041;-74
2023/05/25 00:05:19;;;;;;;15.73;5.57;;;;;;;;;;5070368;28;20052;-74
2023/05/25 00:07:45;;;;;;;13.52;5.55;;;;;;;;;;5053957;28;20079;-74
2023/05/25 00:10:12;;;;;;;11.40;4.50;;;;;;;;;;5055246;28;20052;-75
2023/05/25 00:12:38;;;;;;;17.17;5.35;;;;;;;;;;5055585;28;20063;-74
2023/05/25 00:15:05;;;;;;;14.93;5.47;;;;;;;;;;5055267;28;20120;-74
2023/05/25 00:17:32;;;;;;;14.68;5.35;;;;;;;;;;5056391;28;20036;-74
2023/05/25 00:20:08;;;;;;;20.20;5.40;;;;;;;;;;5057750;28;20047;-74
2023/05/25 00:22:37;;;;;;;16.08;4.95;;;;;;;;;;5058716;28;20051;-74
2023/05/25 00:25:05;;;;;;;21.85;5.22;;;;;;;;;;5060051;28;20075;-74
2023/05/25 00:27:31;;;;;;;16.45;5.05;;;;;;;;;;5055738;28;20044;-73
2023/05/25 00:29:57;;;;;;;15.02;5.78;;;;;;;;;;5058886;28;20044;-74
2023/05/25 00:32:23;;;;;;;11.93;5.07;;;;;;;;;;5039981;28;20175;-74
2023/05/25 00:34:50;;;;;;;15.27;5.40;;;;;;;;;;5057134;28;20121;-74
2023/05/25 00:37:16;;;;;;;16.75;5.22;;;;;;;;;;5054912;28;20075;-74
2023/05/25 00:39:42;;;;;;;13.35;5.32;;;;;;;;;;5055085;28;20080;-73
2023/05/25 00:42:08;;;;;;;16.55;5.22;;;;;;;;;;5072566;28;20062;-74
2023/05/25 00:44:34;;;;;;;15.43;5.25;;;;;;;;;;5057562;28;20052;-74
2023/05/25 00:47:02;;;;;;;12.68;5.20;;;;;;;;;;5055558;28;20044;-74
2023/05/25 00:49:30;;;;;;;27.95;6.45;;;;;;;;;;5052383;28;20172;-74
2023/05/25 00:51:57;;;;;;;17.40;5.15;;;;;;;;;;5069485;28;20044;-73
2023/05/25 00:54:23;;;;;;;17.73;5.53;;;;;;;;;;5053601;28;20040;-74
2023/05/25 00:56:55;;;;;;;14.23;5.30;;;;;;;;;;5052235;28;20047;-74
2023/05/25 00:59:30;;;;;;;19.15;5.43;;;;;;;;;;5057525;28;20052;-74
2023/05/25 01:01:57;;;;;;;14.23;6.05;;;;;;;;;;5098675;28;20056;-73
2023/05/25 01:04:23;;;;;;;11.80;5.57;;;;;;;;;;5061892;28;20079;-73
2023/05/25 01:06:51;;;;;;;14.48;5.93;;;;;;;;;;5062027;28;20124;-73
2023/05/25 01:09:19;;;;;;;14.88;6.38;;;;;;;;;;5060856;28;20047;-73
2023/05/25 01:11:51;;;;;;;17.02;7.00;;;;;;;;;;5057208;28;20186;-74
2023/05/25 01:14:20;;;;;;;18.60;6.78;;;;;;;;;;5058282;28;20048;-73
2023/05/25 01:16:47;;;;;;;14.93;6.25;;;;;;;;;;5059835;28;20052;-74
2023/05/25 01:19:14;;;;;;;14.50;7.20;;;;;;;;;;5058128;28;20083;-74
2023/05/25 01:21:44;;;;;;;20.33;7.43;;;;;;;;;;5059442;28;20059;-74
2023/05/25 01:24:31;;;;;;;14.25;6.18;;;;;;;;;;5056386;28;20153;-74
2023/05/25 01:27:07;;;;;;;16.83;7.10;;;;;;;;;;5055662;28;20043;-74
2023/05/25 01:29:34;;;;;;;21.17;7.38;;;;;;;;;;5055627;28;20048;-74
2023/05/25 01:32:02;;;;;;;18.70;7.70;;;;;;;;;;5056769;28;20044;-74
2023/05/25 01:34:28;;;;;;;23.52;7.22;;;;;;;;;;5056082;28;20706;-74
2023/05/25 01:36:55;;;;;;;17.20;7.35;;;;;;;;;;5054848;28;20037;-74
2023/05/25 01:39:22;;;;;;;21.17;8.23;;;;;;;;;;5055479;28;20100;-74
2023/05/25 01:41:48;;;;;;;13.57;6.30;;;;;;;;;;5052284;28;20091;-74
2023/05/25 01:44:14;;;;;;;18.02;6.63;;;;;;;;;;5052825;28;20048;-74
2023/05/25 01:46:41;;;;;;;20.33;7.35;;;;;;;;;;5056967;28;20085;-74
2023/05/25 01:49:12;;;;;;;15.85;7.35;;;;;;;;;;5050888;28;20153;-74
2023/05/25 01:51:41;;;;;;;15.30;6.80;;;;;;;;;;5049292;28;20200;-74
2023/05/25 01:54:11;;;;;;;20.30;7.18;;;;;;;;;;5052708;28;20071;-74
2023/05/25 01:56:38;;;;;;;18.60;6.57;;;;;;;;;;5035121;28;20486;-74
2023/05/25 01:59:05;;;;;;;23.08;8.05;;;;;;;;;;5050706;28;20044;-73
2023/05/25 02:01:33;;;;;;;17.75;6.80;;;;;;;;;;5053325;28;20167;-73
2023/05/25 02:03:59;;;;;;;15.75;6.57;;;;;;;;;;5053178;28;20072;-73
2023/05/25 02:06:25;;;;;;;19.10;6.80;;;;;;;;;;5052408;28;20119;-74
2023/05/25 02:08:51;;;;;;;19.38;6.75;;;;;;;;;;5050456;28;20052;-73
2023/05/25 02:11:17;;;;;;;18.08;6.50;;;;;;;;;;5054748;28;20048;-73
2023/05/25 02:13:43;;;;;;;22.27;6.47;;;;;;;;;;5048433;28;20067;-74
2023/05/25 02:16:10;;;;;;;20.20;6.68;;;;;;;;;;5051279;28;20097;-74
2023/05/25 02:18:36;;;;;;;18.10;6.50;;;;;;;;;;5054679;28;20186;-74
2023/05/25 02:21:02;;;;;;;14.40;6.13;;;;;;;;;;5053130;28;20044;-73
2023/05/25 02:23:28;;;;;;;11.57;6.53;;;;;;;;;;5052571;28;20182;-74
2023/05/25 02:25:54;;;;;;;14.07;6.18;;;;;;;;;;5035980;28;20098;-74
2023/05/25 02:28:20;;;;;;;17.90;6.80;;;;;;;;;;5054901;28;20567;-74
2023/05/25 02:30:47;;;;;;;12.43;5.32;;;;;;;;;;5056960;28;21805;-74
2023/05/25 02:33:13;;;;;;;14.75;6.32;;;;;;;;;;5057652;28;20040;-74
2023/05/25 02:35:40;;;;;;;20.17;7.18;;;;;;;;;;5058269;28;20047;-74
2023/05/25 02:38:06;;;;;;;18.10;6.50;;;;;;;;;;5056891;28;20511;-74
2023/05/25 02:40:32;;;;;;;16.00;6.97;;;;;;;;;;5053002;28;21040;-74
2023/05/25 02:42:58;;;;;;;17.33;6.68;;;;;;;;;;5053853;28;20040;-74
2023/05/25 02:45:24;;;;;;;17.23;6.78;;;;;;;;;;5053542;28;20166;-74
2023/05/25 02:47:50;;;;;;;18.83;7.93;;;;;;;;;;5068653;28;20101;-74
2023/05/25 02:50:17;;;;;;;17.65;7.78;;;;;;;;;;5068434;28;20071;-74
2023/05/25 02:52:43;;;;;;;20.42;7.85;;;;;;;;;;5067181;28;20054;-74
2023/05/25 02:55:12;;;;;;;15.82;7.10;;;;;;;;;;5052044;28;20094;-73
2023/05/25 02:57:38;;;;;;;18.25;7.65;;;;;;;;;;5050326;28;20102;-74
2023/05/25 03:00:06;;;;;;;20.23;7.93;;;;;;;;;;5065643;28;21697;-74
2023/05/25 03:02:32;;;;;;;15.85;6.80;;;;;;;;;;5055395;28;20376;-74
2023/05/25 03:04:58;;;;;;;20.25;6.72;;;;;;;;;;5055052;28;20066;-74
2023/05/25 03:07:25;;;;;;;20.58;6.97;;;;;;;;;;5054520;28;20051;-74
2023/05/25 03:09:51;;;;;;;14.82;6.18;;;;;;;;;;5055921;28;20088;-74
2023/05/25 03:12:18;;;;;;;18.20;7.55;;;;;;;;;;5037934;28;20039;-74
2023/05/25 03:14:44;;;;;;;18.92;7.43;;;;;;;;;;5052586;28;20412;-74
2023/05/25 03:17:10;;;;;;;23.20;7.55;;;;;;;;;;5051901;28;20715;-74
2023/05/25 03:19:36;;;;;;;18.80;7.35;;;;;;;;;;5049575;28;21154;-74
2023/05/25 03:22:02;;;;;;;17.58;7.10;;;;;;;;;;5067773;28;21715;-74
2023/05/25 03:24:29;;;;;;;24.30;7.90;;;;;;;;;;5054513;28;20055;-74
2023/05/25 03:26:55;;;;;;;19.92;7.03;;;;;;;;;;5057226;28;20582;-74
2023/05/25 03:29:21;;;;;;;19.08;7.55;;;;;;;;;;5056662;28;20036;-74
2023/05/25 03:31:47;;;;;;;16.85;7.32;;;;;;;;;;5070726;28;20075;-74
2023/05/25 03:34:13;;;;;;;23.33;7.82;;;;;;;;;;5059153;28;20101;-74
2023/05/25 03:36:44;;;;;;;22.98;7.85;;;;;;;;;;5057835;28;20516;-74
2023/05/25 03:39:11;;;;;;;18.17;6.95;;;;;;;;;;5057283;28;20170;-74
2023/05/25 03:41:37;;;;;;;17.77;7.35;;;;;;;;;;5056499;28;20099;-74
2023/05/25 03:44:03;;;;;;;20.50;7.13;;;;;;;;;;5059666;28;20295;-75
2023/05/25 03:46:29;;;;;;;16.40;7.20;;;;;;;;;;5056973;28;20054;-74
2023/05/25 03:48:55;;;;;;;17.40;7.22;;;;;;;;;;5055673;28;20071;-74
2023/05/25 03:51:21;;;;;;;21.30;6.97;;;;;;;;;;5053846;28;20048;-74
2023/05/25 03:53:47;;;;;;;22.02;7.78;;;;;;;;;;5056267;28;20067;-74
2023/05/25 03:56:13;;;;;;;14.25;6.72;;;;;;;;;;5054632;28;20036;-74
2023/05/25 03:58:40;;;;;;;21.63;7.35;;;;;;;;;;5064501;28;20108;-74
2023/05/25 04:01:08;;;;;;;21.17;7.97;;;;;;;;;;5050598;28;20555;-73
2023/05/25 04:03:34;;;;;;;18.63;6.63;;;;;;;;;;5054733;28;20051;-74
2023/05/25 04:06:01;;;;;;;24.00;7.03;;;;;;;;;;5052928;28;20052;-74
2023/05/25 04:08:28;;;;;;;19.80;7.15;;;;;;;;;;5061416;28;20430;-74
2023/05/25 04:10:54;;;;;;;18.05;7.05;;;;;;;;;;5058248;28;20152;-74
2023/05/25 04:13:20;;;;;;;18.30;6.65;;;;;;;;;;5059465;28;20067;-75
2023/05/25 04:15:47;;;;;;;17.77;6.53;;;;;;;;;;5059263;28;20436;-75
2023/05/25 04:18:13;;;;;;;14.77;6.38;;;;;;;;;;5057148;28;20055;-75
2023/05/25 04:20:39;;;;;;;24.08;6.35;;;;;;;;;;5055308;28;20040;-75
2023/05/25 04:23:05;;;;;;;18.52;6.00;;;;;;;;;;5055674;28;20045;-75
2023/05/25 04:25:31;;;;;;;26.02;6.50;;;;;;;;;;5053308;28;20044;-75
2023/05/25 04:27:57;;;;;;;18.70;5.72;;;;;;;;;;5053165;28;20044;-75
2023/05/25 04:30:24;;;;;;;20.02;5.78;;;;;;;;;;5053157;28;20155;-75
2023/05/25 04:32:50;;;;;;;22.05;5.95;;;;;;;;;;5056819;28;20045;-75
2023/05/25 04:35:19;;;;;;;24.80;6.75;;;;;;;;;;5037453;28;20103;-76
2023/05/25 04:37:47;;;;;;;21.67;5.90;;;;;;;;;;5050311;28;20048;-75
2023/05/25 04:40:13;;;;;;;21.48;5.75;;;;;;;;;;5050863;28;21821;-75
2023/05/25 04:42:43;;;;;;;22.33;5.78;;;;;;;;;;5052699;28;20044;-75
2023/05/25 04:45:10;;;;;;;15.35;5.03;;;;;;;;;;5050281;28;20146;-75
2023/05/25 04:47:39;;;;;;;22.42;5.30;;;;;;;;;;5054897;28;20044;-74
2023/05/25 04:50:07;;;;;;;18.58;5.20;;;;;;;;;;5059090;28;20187;-75
2023/05/25 04:52:33;;;;;;;19.50;6.00;;;;;;;;;;5059059;28;20117;-74
2023/05/25 04:54:59;;;;;;;18.98;4.88;;;;;;;;;;5051839;28;20040;-75
2023/05/25 04:57:27;;;;;;;15.88;4.80;;;;;;;;;;5061213;28;20044;-75
2023/05/25 04:59:53;;;;;;;18.42;4.68;;;;;;;;;;5056274;28;20174;-75
2023/05/25 05:02:19;;;;;;;15.18;4.55;;;;;;;;;;5052956;28;20384;-75
2023/05/25 05:04:45;;;;;;;15.55;4.40;;;;;;;;;;5052823;28;20196;-75
2023/05/25 05:07:11;;;;;;;20.20;5.15;;;;;;;;;;5050856;28;20075;-75
2023/05/25 05:09:37;;;;;;;18.55;4.40;;;;;;;;;;5053964;28;20741;-75
2023/05/25 05:12:04;;;;;;;13.02;3.80;;;;;;;;;;5049150;28;20095;-75
2023/05/25 05:14:30;;;;;;;16.58;3.90;;;;;;;;;;5050586;28;20113;-75
2023/05/25 05:16:56;;;;;;;14.82;3.75;;;;;;;;;;5052301;28;20407;-75
2023/05/25 05:19:22;;;;;;;12.13;3.85;;;;;;;;;;5053567;28;20040;-75
2023/05/25 05:21:48;;;;;;;17.30;4.63;;;;;;;;;;5069907;28;20395;-75
2023/05/25 05:24:14;;;;;;;14.65;3.55;;;;;;;;;;5051327;28;21532;-75
2023/05/25 05:26:41;;;;;;;12.27;3.85;;;;;;;;;;5052799;28;20783;-75
2023/05/25 05:29:07;;;;;;;16.70;3.75;;;;;;;;;;5051667;28;20131;-75
2023/05/25 05:31:35;;;;;;;19.98;4.47;;;;;;;;;;5068744;28;20765;-75
2023/05/25 05:34:01;;;;;;;18.00;4.55;;;;;;;;;;5052311;28;20059;-75
2023/05/25 05:36:28;;;;;;;12.10;3.83;;;;;;;;;;5050072;28;20044;-75
2023/05/25 05:38:54;;;;;;;21.77;4.22;;;;;;;;;;5066697;28;20063;-75
2023/05/25 05:41:20;;;;;;;21.60;4.47;;;;;;;;;;5066780;28;21710;-75
2023/05/25 05:43:46;;;;;;;21.92;4.78;;;;;;;;;;5052227;28;20052;-75
2023/05/25 05:46:12;;;;;;;19.23;4.20;;;;;;;;;;5053032;28;20040;-76
2023/05/25 05:48:39;;;;;;;23.10;4.68;;;;;;;;;;5051330;28;20036;-75
2023/05/25 05:51:05;;;;;;;22.48;4.75;;;;;;;;;;5066389;27;20377;-75
2023/05/25 05:53:31;;;;;;;18.58;4.15;;;;;;;;;;5049769;28;20048;-76
2023/05/25 05:55:58;;;;;;;24.05;4.47;;;;;;;;;;5051760;28;21042;-75
2023/05/25 05:58:28;;;;;;;21.80;4.90;;;;;;;;;;5049660;28;20556;-75
2023/05/25 06:00:55;;;;;;;14.65;4.28;;;;;;;;;;5049500;28;20198;-75
2023/05/25 06:03:21;;;;;;;23.13;4.75;;;;;;;;;;5034564;28;20055;-75
2023/05/25 06:05:48;;;;;;;22.90;4.63;;;;;;;;;;5047845;28;20144;-75
2023/05/25 06:08:14;;;;;;;14.15;4.13;;;;;;;;;;5036200;28;20129;-76
2023/05/25 06:10:41;;;;;;;21.65;5.13;;;;;;;;;;5055311;28;20036;-76
2023/05/25 06:13:07;;;;;;;18.52;5.80;;;;;;;;;;5051919;28;20131;-75
2023/05/25 06:15:33;;;;;;;17.40;4.15;;;;;;;;;;5065398;28;20602;-75
2023/05/25 06:17:59;;;;;;;25.98;4.90;;;;;;;;;;5067738;27;21955;-75
2023/05/25 06:20:25;;;;;;;23.98;5.32;;;;;;;;;;5057631;28;20044;-75
2023/05/25 06:22:52;;;;;;;23.05;5.07;;;;;;;;;;5053234;28;20063;-75
2023/05/25 06:25:19;;;;;;;25.08;4.15;;;;;;;;;;5068086;28;20551;-75
2023/05/25 06:27:45;;;;;;;20.92;4.45;;;;;;;;;;5038132;28;20041;-75
2023/05/25 06:30:11;;;;;;;24.67;5.55;;;;;;;;;;5053854;28;20571;-75
2023/05/25 06:32:37;;;;;;;20.83;4.82;;;;;;;;;;5056574;28;20054;-75
2023/05/25 06:35:04;;;;;;;19.13;4.30;;;;;;;;;;5054682;28;21482;-75
2023/05/25 06:37:36;;;;;;;25.17;5.00;;;;;;;;;;5053162;28;20072;-75
2023/05/25 06:40:04;;;;;;;22.67;4.82;;;;;;;;;;5052001;28;20138;-75
2023/05/25 06:42:30;;;;;;;28.17;5.35;;;;;;;;;;5051655;28;20096;-75
2023/05/25 06:44:56;;;;;;;24.10;5.18;;;;;;;;;;5054138;28;20047;-75
2023/05/25 06:47:22;;;;;;;25.23;5.45;;;;;;;;;;5053833;28;20512;-75
2023/05/25 06:49:49;;;;;;;20.30;4.57;;;;;;;;;;5054714;28;20081;-75
2023/05/25 06:52:15;;;;;;;26.70;5.38;;;;;;;;;;5052869;28;20123;-75
2023/05/25 06:54:41;;;;;;;21.08;4.72;;;;;;;;;;5055880;28;20097;-74
2023/05/25 06:57:07;;;;;;;27.80;4.43;;;;;;;;;;5052240;28;20043;-75
2023/05/25 06:59:33;;;;;;;21.55;5.30;;;;;;;;;;5048727;28;20044;-75
2023/05/25 07:02:00;;;;;;;30.70;5.95;;;;;;;;;;5052534;28;20059;-74
2023/05/25 07:04:27;;;;;;;30.23;5.07;;;;;;;;;;5050973;28;20094;-75
2023/05/25 07:06:53;;;;;;;29.85;6.15;;;;;;;;;;5051692;28;20052;-75
2023/05/25 07:09:20;;;;;;;23.02;4.50;;;;;;;;;;5052432;28;20128;-75
2023/05/25 07:11:46;;;;;;;25.92;5.47;;;;;;;;;;5053274;28;20565;-74
2023/05/25 07:14:12;;;;;;;24.10;4.88;;;;;;;;;;5052122;28;21781;-74
2023/05/25 07:16:38;;;;;;;35.00;5.85;;;;;;;;;;5052887;28;20411;-75
2023/05/25 07:19:04;;;;;;;25.58;4.75;;;;;;;;;;5068580;28;20044;-75
2023/05/25 07:21:32;;;;;;;27.75;5.53;;;;;;;;;;5051681;28;21406;-76
2023/05/25 07:23:59;;;;;;;32.53;6.35;;;;;;;;;;5054947;28;20492;-75
2023/05/25 07:26:26;;;;;;;26.33;5.25;;;;;;;;;;5052036;28;20052;-74
2023/05/25 07:28:52;;;;;;;25.58;5.72;;;;;;;;;;5052035;28;20500;-75
2023/05/25 07:31:18;;;;;;;32.28;5.82;;;;;;;;;;5053163;28;20117;-74
2023/05/25 07:33:44;;;;;;;30.85;5.75;;;;;;;;;;5053613;28;20032;-75
2023/05/25 07:36:11;;;;;;;32.88;5.22;;;;;;;;;;5054132;28;20173;-74
2023/05/25 07:38:37;;;;;;;26.55;6.35;;;;;;;;;;5051689;28;20051;-74
2023/05/25 07:41:03;;;;;;;35.10;5.82;;;;;;;;;;5049497;28;20043;-75
2023/05/25 07:43:29;;;;;;;34.00;6.32;;;;;;;;;;5051970;28;20032;-77
2023/05/25 07:45:55;;;;;;;27.75;5.32;;;;;;;;;;5057485;28;20067;-77
2023/05/25 07:48:21;;;;;;;29.15;5.30;;;;;;;;;;5054084;28;20063;-77
2023/05/25 07:50:47;;;;;;;25.80;5.50;;;;;;;;;;5054785;28;20060;-77
2023/05/25 07:53:13;;;;;;;34.30;6.47;;;;;;;;;;5051544;28;20052;-77
2023/05/25 07:55:40;;;;;;;23.98;5.47;;;;;;;;;;5051096;28;20041;-77
2023/05/25 07:58:06;;;;;;;32.10;5.45;;;;;;;;;;5053358;28;20049;-78
2023/05/25 08:00:32;;;;;;;22.35;5.60;;;;;;;;;;5067724;28;20170;-78
2023/05/25 08:02:58;;;;;;;27.10;5.97;;;;;;;;;;5050434;28;20055;-78
2023/05/25 08:05:25;;;;;;;29.27;5.32;;;;;;;;;;5050757;28;20051;-79
2023/05/25 08:07:51;;;;;;;30.83;6.30;;;;;;;;;;5052968;28;20072;-75
2023/05/25 08:10:17;;;;;;;32.30;6.10;;;;;;;;;;5069863;28;20043;-79
2023/05/25 08:12:43;;;;;;;27.25;5.95;;;;;;;;;;5056954;28;20048;-78
2023/05/25 08:15:09;;;;;;;29.90;5.40;;;;;;;;;;5071529;28;20075;-73
2023/05/25 08:17:35;;;;;;;27.58;5.47;;;;;;;;;;5055434;28;20503;-75
2023/05/25 08:20:04;;;;;;;36.08;6.50;;;;;;;;;;5056316;28;20133;-74
2023/05/25 08:22:30;;;;;;;30.52;5.85;;;;;;;;;;5058146;28;20059;-74
2023/05/25 08:24:57;;;;;;;30.23;5.47;;;;;;;;;;5054924;28;20048;-71
2023/05/25 08:27:23;;;;;;;26.50;4.88;;;;;;;;;;5058360;28;20042;-71
2023/05/25 08:29:55;;;;;;;21.17;6.18;;;;;;;;;;5058806;28;20089;-72
2023/05/25 08:32:21;;;;;;;25.27;4.47;;;;;;;;;;5066830;28;20052;-73
2023/05/25 08:34:47;;;;;;;22.70;4.63;;;;;;;;;;5063430;28;20093;-73
2023/05/25 08:37:13;;;;;;;29.95;6.45;;;;;;;;;;5059226;28;20721;-73
2023/05/25 08:39:39;;;;;;;26.80;5.95;;;;;;;;;;5061718;28;20186;-73
2023/05/25 08:42:06;;;;;;;24.00;4.90;;;;;;;;;;5059107;28;20043;-73
2023/05/25 08:44:32;;;;;;;22.95;4.40;;;;;;;;;;5059760;28;20048;-73
2023/05/25 08:47:00;;;;;;;26.77;5.78;;;;;;;;;;5080863;28;20049;-73
2023/05/25 08:49:26;;;;;;;26.17;5.35;;;;;;;;;;5063794;28;20097;-73
2023/05/25 08:51:53;;;;;;;24.27;5.45;;;;;;;;;;5063820;28;20048;-73
2023/05/25 08:54:22;;;;;;;23.00;5.10;;;;;;;;;;5062437;28;20040;-73
2023/05/25 08:56:51;;;;;;;24.13;5.68;;;;;;;;;;5064481;28;20048;-72
2023/05/25 08:59:20;;;;;;;23.60;5.38;;;;;;;;;;5061470;28;20566;-73
2023/05/25 09:01:51;;;;;;;25.60;5.07;;;;;;;;;;5061465;28;20040;-73
2023/05/25 09:04:18;;;;;;;25.35;5.60;;;;;;;;;;5060009;28;20182;-72
2023/05/25 09:06:46;;;;;;;28.17;5.35;;;;;;;;;;5063201;28;20036;-72
2023/05/25 09:09:12;;;;;;;26.20;6.13;;;;;;;;;;5061627;28;20048;-74
2023/05/25 09:11:42;;;;;;;26.92;5.65;;;;;;;;;;5066010;28;20028;-73
2023/05/25 09:14:08;;;;;;;20.10;4.82;;;;;;;;;;5064949;28;20043;-73
2023/05/25 09:16:36;;;;;;;27.20;5.18;;;;;;;;;;5060137;28;20097;-73
2023/05/25 09:19:02;;;;;;;23.15;6.15;;;;;;;;;;5055726;28;20058;-73
2023/05/25 09:21:28;;;;;;;21.00;5.10;;;;;;;;;;5053042;28;20047;-73
2023/05/25 09:23:54;;;;;;;26.42;4.70;;;;;;;;;;5056289;28;20855;-74
2023/05/25 09:26:21;;;;;;;27.65;5.30;;;;;;;;;;5053759;28;20041;-74
2023/05/25 09:28:48;;;;;;;32.30;6.25;;;;;;;;;;5057299;28;20079;-72
2023/05/25 09:31:15;;;;;;;27.35;6.15;;;;;;;;;;5060413;28;20086;-74
2023/05/25 09:33:42;;;;;;;25.27;5.65;;;;;;;;;;5058001;28;20044;-73
2023/05/25 09:36:08;;;;;;;27.77;5.00;;;;;;;;;;5056236;28;20157;-74
2023/05/25 09:38:35;;;;;;;35.50;5.68;;;;;;;;;;5054914;28;20069;-74
2023/05/25 09:41:01;;;;;;;28.00;6.40;;;;;;;;;;5055818;28;20040;-74
2023/05/25 09:43:27;;;;;;;28.75;4.72;;;;;;;;;;5054965;28;20045;-73
2023/05/25 09:45:53;;;;;;;25.48;5.90;;;;;;;;;;5055840;28;20040;-74
2023/05/25 09:48:21;;;;;;;28.63;5.43;;;;;;;;;;5072609;28;20040;-73
2023/05/25 09:50:48;;;;;;;32.15;5.90;;;;;;;;;;5054829;28;20062;-73
2023/05/25 09:53:14;;;;;;;36.45;7.50;;;;;;;;;;5056109;28;21688;-74
2023/05/25 09:55:40;;;;;;;29.27;5.18;;;;;;;;;;5053842;28;20044;-73
2023/05/25 09:58:07;;;;;;;24.27;5.88;;;;;;;;;;5052771;28;20428;-73
2023/05/25 10:00:33;;;;;;;29.20;6.20;;;;;;;;;;5051191;28;21441;-76
2023/05/25 10:02:59;;;;;;;32.75;6.40;;;;;;;;;;5072924;28;20048;-73
2023/05/25 10:05:25;;;;;;;29.90;6.03;;;;;;;;;;5056159;28;20131;-73
2023/05/25 10:07:53;;;;;;;27.38;5.63;;;;;;;;;;5055702;28;20133;-73
2023/05/25 10:10:19;;;;;;;36.88;7.40;;;;;;;;;;5054053;28;20904;-73
2023/05/25 10:12:48;;;;;;;32.63;5.72;;;;;;;;;;5053733;28;20055;-73
2023/05/25 10:15:15;;;;;;;33.78;6.22;;;;;;;;;;5056028;28;20052;-73
2023/05/25 10:17:46;;;;;;;27.25;5.53;;;;;;;;;;5071739;28;20135;-73
2023/05/25 10:20:13;;;;;;;33.33;7.60;;;;;;;;;;5053780;28;20051;-73
2023/05/25 10:22:43;;;;;;;28.45;5.85;;;;;;;;;;5054153;28;20043;-73
2023/05/25 10:25:28;;;;;;;34.42;7.28;;;;;;;;;;5053386;28;20495;-73
2023/05/25 10:27:54;;;;;;;26.90;5.97;;;;;;;;;;5056071;28;20478;-73
2023/05/25 10:30:20;;;;;;;34.97;5.95;;;;;;;;;;5057058;28;20036;-73
2023/05/25 10:32:47;;;;;;;32.03;6.55;;;;;;;;;;5071367;28;20036;-73
2023/05/25 10:35:13;;;;;;;27.05;6.78;;;;;;;;;;5054119;28;20168;-73
2023/05/25 10:37:39;;;;;;;26.90;5.55;;;;;;;;;;5044726;28;20062;-73
2023/05/25 10:40:09;;;;;;;31.38;6.85;;;;;;;;;;5051606;28;20040;-72
2023/05/25 10:42:37;;;;;;;24.63;5.97;;;;;;;;;;5067443;28;20148;-73
2023/05/25 10:45:04;;;;;;;27.65;6.13;;;;;;;;;;5050701;28;20118;-72
2023/05/25 10:47:31;;;;;;;34.30;6.57;;;;;;;;;;5051083;28;20067;-73
2023/05/25 10:50:01;;;;;;;38.08;6.97;;;;;;;;;;5051406;28;20062;-73
2023/05/25 10:52:28;;;;;;;30.27;6.07;;;;;;;;;;5053338;28;20503;-73
2023/05/25 10:54:58;;;;;;;27.05;5.65;;;;;;;;;;5055560;28;20078;-73
2023/05/25 10:57:24;;;;;;;33.28;6.53;;;;;;;;;;5054181;28;20070;-73
2023/05/25 10:59:53;;;;;;;25.58;6.57;;;;;;;;;;5053393;28;20795;-74
2023/05/25 11:02:22;;;;;;;33.97;9.68;;;;;;;;;;5031792;28;20388;-75
2023/05/25 11:04:49;;;;;;;33.63;6.53;;;;;;;;;;5052391;28;20088;-73
2023/05/25 11:07:18;;;;;;;36.53;6.78;;;;;;;;;;5049400;28;20544;-74
2023/05/25 11:09:55;;;;;;;27.27;6.18;;;;;;;;;;5051453;28;20056;-73
2023/05/25 11:12:21;;;;;;;27.75;6.43;;;;;;;;;;5056748;28;20185;-73
2023/05/25 11:15:06;;;;;;;35.30;6.30;;;;;;;;;;5057010;28;20135;-73
2023/05/25 11:17:34;;;;;;;27.95;6.45;;;;;;;;;;5055162;28;20044;-73
2023/05/25 11:20:05;;;;;;;23.48;5.28;;;;;;;;;;5050633;28;20055;-73
2023/05/25 11:22:31;;;;;;;24.65;5.57;;;;;;;;;;5071398;28;20117;-73
2023/05/25 11:24:59;;;;;;;23.85;5.00;;;;;;;;;;5055929;28;20393;-73
2023/05/25 11:27:27;;;;;;;22.42;5.57;;;;;;;;;;5036896;28;20036;-73
2023/05/25 11:29:55;;;;;;;23.88;5.57;;;;;;;;;;5030694;28;20089;-73
2023/05/25 11:32:21;;;;;;;25.80;5.60;;;;;;;;;;5052465;28;20054;-73
2023/05/25 11:34:48;;;;;;;19.38;4.30;;;;;;;;;;5053359;28;21475;-74
2023/05/25 11:37:21;;;;;;;18.58;5.30;;;;;;;;;;5052395;28;20044;-74
2023/05/25 11:39:50;;;;;;;22.45;5.68;;;;;;;;;;5049765;28;20072;-72
2023/05/25 11:42:18;;;;;;;24.98;5.13;;;;;;;;;;5048965;28;20055;-72
2023/05/25 11:44:44;;;;;;;14.88;4.35;;;;;;;;;;5060516;28;20139;-72
2023/05/25 11:47:17;;;;;;;20.88;4.72;;;;;;;;;;5059463;28;20041;-72
2023/05/25 11:49:45;;;;;;;21.90;5.20;;;;;;;;;;5063925;28;20066;-72
2023/05/25 11:52:13;;;;;;;21.55;5.55;;;;;;;;;;5063426;28;20069;-72
2023/05/25 11:54:42;;;;;;;25.75;5.65;;;;;;;;;;5062189;28;20056;-73
2023/05/25 11:57:15;;;;;;;23.75;5.53;;;;;;;;;;5059597;28;20050;-72
2023/05/25 11:59:47;;;;;;;22.27;4.85;;;;;;;;;;5074161;28;20135;-71
2023/05/25 12:02:13;;;;;;;24.58;5.93;;;;;;;;;;5066691;28;20048;-72
2023/05/25 12:04:41;;;;;;;30.23;5.18;;;;;;;;;;5061793;28;20155;-71
2023/05/25 12:07:08;;;;;;;23.15;5.10;;;;;;;;;;5060324;28;20488;-71
2023/05/25 12:09:35;;;;;;;21.48;4.45;;;;;;;;;;5063665;28;21789;-71
2023/05/25 12:12:05;;;;;;;25.83;5.57;;;;;;;;;;5062505;28;20043;-72
2023/05/25 12:14:34;;;;;;;22.45;5.32;;;;;;;;;;5064013;28;20048;-71
2023/05/25 12:17:00;;;;;;;24.30;5.97;;;;;;;;;;5062829;28;20192;-72
2023/05/25 12:19:27;;;;;;;23.13;5.75;;;;;;;;;;5064585;28;20036;-71
2023/05/25 12:21:54;;;;;;;17.20;5.05;;;;;;;;;;5061249;28;20541;-72
2023/05/25 12:24:20;;;;;;;23.27;5.40;;;;;;;;;;5061364;28;20044;-72
2023/05/25 12:26:55;;;;;;;20.75;5.68;;;;;;;;;;5078834;28;20039;-72
2023/05/25 12:29:22;;;;;;;23.60;5.60;;;;;;;;;;5059003;28;20484;-72
2023/05/25 12:31:48;;;;;;;20.83;5.18;;;;;;;;;;5060344;28;20053;-71
2023/05/25 12:34:15;;;;;;;24.35;5.25;;;;;;;;;;5079017;28;20036;-71
2023/05/25 12:36:41;;;;;;;24.17;5.78;;;;;;;;;;5060285;28;20836;-71
2023/05/25 12:39:08;;;;;;;26.95;5.65;;;;;;;;;;5060625;28;20083;-71
2023/05/25 12:41:53;;;;;;;27.48;5.65;;;;;;;;;;5060512;28;20639;-71
2023/05/25 12:44:40;;;;;;;34.35;6.57;;;;;;;;;;5061578;28;20067;-72
2023/05/25 12:47:10;;;;;;;27.15;6.18;;;;;;;;;;5067635;28;20055;-72
2023/05/25 12:49:37;;;;;;;24.50;6.95;;;;;;;;;;5063422;28;20058;-72
2023/05/25 12:52:04;;;;;;;31.77;7.35;;;;;;;;;;5060046;28;20055;-72
2023/05/25 12:54:44;;;;;;;24.95;6.07;;;;;;;;;;5062722;28;20044;-72
2023/05/25 12:57:12;;;;;;;33.38;6.40;;;;;;;;;;5059066;28;20044;-72
2023/05/25 12:59:38;;;;;;;25.33;6.25;;;;;;;;;;5061624;28;20086;-72
2023/05/25 13:02:05;;;;;;;26.45;6.40;;;;;;;;;;5061639;28;20040;-71
2023/05/25 13:04:31;;;;;;;22.60;5.45;;;;;;;;;;5061913;28;20131;-71
2023/05/25 13:06:57;;;;;;;22.98;5.50;;;;;;;;;;5062784;28;20056;-72
2023/05/25 13:09:28;;;;;;;22.75;5.88;;;;;;;;;;5060821;28;20507;-72
2023/05/25 13:11:54;;;;;;;28.60;5.75;;;;;;;;;;5059462;28;20044;-72
2023/05/25 13:14:21;;;;;;;34.17;7.30;;;;;;;;;;5061703;28;20040;-72
2023/05/25 13:16:47;;;;;;;24.80;5.00;;;;;;;;;;5061150;28;20168;-72
2023/05/25 13:19:13;;;;;;;28.13;5.97;;;;;;;;;;5059612;28;20056;-72
2023/05/25 13:21:39;;;;;;;21.55;5.38;;;;;;;;;;5061060;28;20106;-72
2023/05/25 13:24:06;;;;;;;27.67;5.65;;;;;;;;;;5059561;28;20122;-72
2023/05/25 13:26:32;;;;;;;28.88;5.82;;;;;;;;;;5075495;28;20051;-72
2023/05/25 13:28:59;;;;;;;33.20;5.88;;;;;;;;;;5059047;28;20143;-73
2023/05/25 13:31:25;;;;;;;25.13;5.10;;;;;;;;;;5046876;28;20488;-73
2023/05/25 13:33:51;;;;;;;27.80;5.22;;;;;;;;;;5054075;28;20097;-73
2023/05/25 13:36:18;;;;;;;29.05;6.15;;;;;;;;;;5034991;28;20137;-73
2023/05/25 13:38:44;;;;;;;24.15;5.40;;;;;;;;;;5055359;28;20068;-73
2023/05/25 13:41:10;;;;;;;26.25;6.50;;;;;;;;;;5057498;28;20048;-73
2023/05/25 13:43:36;;;;;;;25.90;5.65;;;;;;;;;;5054945;28;20097;-72
2023/05/25 13:46:02;;;;;;;30.90;5.85;;;;;;;;;;5055909;28;20052;-73
2023/05/25 13:48:28;;;;;;;24.40;6.00;;;;;;;;;;5063525;28;20090;-73
2023/05/25 13:50:55;;;;;;;28.80;7.28;;;;;;;;;;5074070;27;20139;-73
2023/05/25 13:53:21;;;;;;;30.30;5.95;;;;;;;;;;5058390;28;20273;-73
2023/05/25 13:55:47;;;;;;;28.83;5.85;;;;;;;;;;5073760;28;20049;-73
2023/05/25 13:58:13;;;;;;;21.08;5.47;;;;;;;;;;5059905;28;20108;-73
2023/05/25 14:00:40;;;;;;;27.02;5.90;;;;;;;;;;5057920;28;20040;-72
2023/05/25 14:03:07;;;;;;;26.60;5.85;;;;;;;;;;5056422;28;20039;-73
2023/05/25 14:05:33;;;;;;;25.73;5.30;;;;;;;;;;5055333;28;20044;-73
2023/05/25 14:08:01;;;;;;;21.10;5.10;;;;;;;;;;5062027;28;20123;-73
2023/05/25 14:10:27;;;;;;;20.15;5.00;;;;;;;;;;5047396;28;20048;-73
2023/05/25 14:12:54;;;;;;;20.83;5.55;;;;;;;;;;5057560;28;20036;-73
2023/05/25 14:15:20;;;;;;;22.90;5.38;;;;;;;;;;5056752;28;20145;-73
2023/05/25 14:17:46;;;;;;;18.92;4.85;;;;;;;;;;5056303;28;20054;-73
2023/05/25 14:20:19;;;;;;;25.42;5.50;;;;;;;;;;5072334;28;20048;-73
2023/05/25 14:22:45;;;;;;;26.02;5.00;;;;;;;;;;5055350;28;20048;-73
2023/05/25 14:25:11;;;;;;;25.10;5.03;;;;;;;;;;5055313;28;20073;-73
2023/05/25 14:27:37;;;;;;;20.40;5.25;;;;;;;;;;5055318;28;20044;-73
2023/05/25 14:30:05;;;;;;;23.33;5.10;;;;;;;;;;5054972;28;20101;-73